Time;durP1;ratioP1;P1;durP2;ratioP2;P2;SDS_P1;SDS_P2;PMS_P1;PMS_P2;Temp;Humidity;BMP_temperature;BMP_pressure;BME280_temperature;BME280_humidity;BME280_pressure;Samples;Min_cycle;Max_cycle;Signal;HPM_P1;HPM_P2
2023/01/10 00:02:10;;;;;;;;;;;;;;;;;;5029502;28;19925;-65
2023/01/10 00:04:36;;;;;;;;;;;;;;;;;;5031571;28;19929;-65
2023/01/10 00:07:02;;;;;;;;;;;;;;;;;;5032573;28;19925;-65
2023/01/10 00:09:28;;;;;;;;;;;;;;;;;;5029180;28;20267;-65
2023/01/10 00:14:38;;;;;;;;;;;;;;;;;;5032566;28;19960;-65
2023/01/10 00:17:04;;;;;;;;;;;;;;;;;;5027994;28;20363;-65
2023/01/10 00:19:30;;;;;;;;;;;;;;;;;;5033154;28;20290;-65
2023/01/10 00:21:57;;;;;;;;;;;;;;;;;;5032554;28;19921;-65
2023/01/10 00:24:23;;;;;;;;;;;;;;;;;;5029737;28;19979;-65
2023/01/10 00:26:52;;;;;;;;;;;;;;;;;;5031189;28;19922;-65
2023/01/10 00:29:17;;;;;;;;;;;;;;;;;;5032877;28;19928;-65
2023/01/10 00:31:43;;;;;;;;;;;;;;;;;;5013341;28;20291;-65
2023/01/10 00:34:09;;;;;;;;;;;;;;;;;;5034056;28;21110;-65
2023/01/10 00:36:35;;;;;;;;;;;;;;;;;;5031103;28;19921;-65
2023/01/10 00:39:01;;;;;;;;;;;;;;;;;;5033195;28;19963;-65
2023/01/10 00:44:12;;;;;;;;;;;;;;;;;;5029242;28;19925;-65
2023/01/10 00:46:38;;;;;;;;;;;;;;;;;;5025221;28;19968;-64
2023/01/10 00:49:12;;;;;;;;;;;;;;;;;;5015001;28;20060;-65
2023/01/10 00:51:38;;;;;;;;;;;;;;;;;;5032096;28;20316;-64
2023/01/10 00:54:04;;;;;;;;;;;;;;;;;;5032796;28;19925;-64
2023/01/10 00:56:30;;;;;;;;;;;;;;;;;;5031001;28;19936;-65
2023/01/10 00:58:56;;;;;;;;;;;;;;;;;;5046541;28;20361;-65
2023/01/10 01:01:22;;;;;;;;;;;;;;;;;;5031375;28;20430;-65
2023/01/10 01:03:48;;;;;;;;;;;;;;;;;;5031003;28;19928;-65
2023/01/10 01:06:13;;;;;;;;;;;;;;;;;;5038835;28;19921;-65
2023/01/10 01:08:39;;;;;;;;;;;;;;;;;;5032710;28;19928;-65
2023/01/10 01:11:05;;;;;;;;;;;;;;;;;;5029541;28;19936;-65
2023/01/10 01:13:31;;;;;;;;;;;;;;;;;;5029269;28;20458;-65
2023/01/10 01:31:15;;;;;;;;;;;;;;;;;;5021627;28;19920;-66
2023/01/10 01:33:41;;;;;;;;;;;;;;;;;;5029289;28;20506;-66
2023/01/10 01:36:07;;;;;;;;;;;;;;;;;;5048327;28;19963;-66
2023/01/10 01:38:33;;;;;;;;;;;;;;;;;;5033184;28;20028;-66
2023/01/10 01:40:59;;;;;;;;;;;;;;;;;;5029192;28;20016;-66
2023/01/10 01:43:25;;;;;;;;;;;;;;;;;;5027667;28;19975;-64
2023/01/10 01:45:51;;;;;;;;;;;;;;;;;;5032459;28;19947;-64
2023/01/10 01:48:17;;;;;;;;;;;;;;;;;;5030588;28;21615;-64
2023/01/10 01:50:43;;;;;;;;;;;;;;;;;;5032057;28;20305;-64
2023/01/10 01:53:08;;;;;;;;;;;;;;;;;;5022434;28;20013;-64
2023/01/10 01:55:34;;;;;;;;;;;;;;;;;;5029363;28;19925;-64
2023/01/10 01:58:00;;;;;;;;;;;;;;;;;;5030835;28;20298;-64
2023/01/10 02:00:26;;;;;;;;;;;;;;;;;;5027231;28;19925;-65
2023/01/10 02:02:52;;;;;;;;;;;;;;;;;;5030913;28;19925;-65
2023/01/10 02:05:18;;;;;;;;;;;;;;;;;;5029057;28;20378;-65
2023/01/10 02:07:44;;;;;;;;;;;;;;;;;;5028253;28;19964;-65
2023/01/10 02:10:10;;;;;;;;;;;;;;;;;;5032901;28;20368;-65
2023/01/10 02:12:36;;;;;;;;;;;;;;;;;;5029074;28;19921;-65
2023/01/10 02:15:02;;;;;;;;;;;;;;;;;;5029134;28;19948;-65
2023/01/10 02:17:28;;;;;;;;;;;;;;;;;;5031269;28;20282;-65
2023/01/10 02:19:53;;;;;;;;;;;;;;;;;;5028866;28;19925;-65
2023/01/10 02:22:19;;;;;;;;;;;;;;;;;;5015671;28;20192;-65
2023/01/10 02:24:45;;;;;;;;;;;;;;;;;;5032106;28;20244;-65
2023/01/10 02:27:11;;;;;;;;;;;;;;;;;;5031253;28;19979;-65
2023/01/10 02:29:37;;;;;;;;;;;;;;;;;;5031408;28;20011;-65
2023/01/10 02:32:03;;;;;;;;;;;;;;;;;;5028172;28;19925;-65
2023/01/10 02:34:29;;;;;;;;;;;;;;;;;;5032234;28;19925;-65
2023/01/10 02:36:55;;;;;;;;;;;;;;;;;;5032077;28;19975;-65
2023/01/10 02:39:21;;;;;;;;;;;;;;;;;;5032013;28;19933;-65
2023/01/10 02:41:46;;;;;;;;;;;;;;;;;;5031699;28;19924;-66
2023/01/10 02:44:12;;;;;;;;;;;;;;;;;;5030818;28;19921;-66
2023/01/10 02:46:39;;;;;;;;;;;;;;;;;;5030212;28;20351;-66
2023/01/10 02:49:05;;;;;;;;;;;;;;;;;;5029216;28;19925;-65
2023/01/10 02:51:34;;;;;;;;;;;;;;;;;;5031212;28;19927;-65
2023/01/10 02:54:00;;;;;;;;;;;;;;;;;;5030595;28;19979;-65
2023/01/10 02:56:26;;;;;;;;;;;;;;;;;;5015729;28;19964;-66
2023/01/10 02:58:52;;;;;;;;;;;;;;;;;;5028040;28;19921;-65
2023/01/10 03:01:17;;;;;;;;;;;;;;;;;;5028295;28;19925;-65
2023/01/10 03:03:43;;;;;;;;;;;;;;;;;;5030040;28;20381;-65
2023/01/10 03:06:09;;;;;;;;;;;;;;;;;;5028103;28;20589;-65
2023/01/10 03:08:35;;;;;;;;;;;;;;;;;;5030444;28;19922;-65
2023/01/10 03:11:01;;;;;;;;;;;;;;;;;;5029778;28;19928;-65
2023/01/10 03:13:27;;;;;;;;;;;;;;;;;;5035138;28;20007;-65
2023/01/10 03:15:53;;;;;;;;;;;;;;;;;;5012016;28;19932;-66
2023/01/10 03:18:19;;;;;;;;;;;;;;;;;;5029612;28;19982;-65
2023/01/10 03:20:45;;;;;;;;;;;;;;;;;;5025074;28;19921;-65
2023/01/10 03:23:12;;;;;;;;;;;;;;;;;;5020749;28;19928;-65
2023/01/10 03:25:38;;;;;;;;;;;;;;;;;;5032479;28;19956;-65
2023/01/10 03:28:03;;;;;;;;;;;;;;;;;;5034223;28;19976;-65
2023/01/10 03:30:29;;;;;;;;;;;;;;;;;;5035302;28;19932;-65
2023/01/10 03:32:55;;;;;;;;;;;;;;;;;;5031687;28;19925;-65
2023/01/10 03:35:21;;;;;;;;;;;;;;;;;;5035622;28;19925;-65
2023/01/10 03:37:47;;;;;;;;;;;;;;;;;;5034332;28;19948;-65
2023/01/10 03:40:13;;;;;;;;;;;;;;;;;;5033070;28;19991;-65
2023/01/10 03:45:24;;;;;;;;;;;;;;;;;;5033732;28;19921;-65
2023/01/10 03:47:50;;;;;;;;;;;;;;;;;;5050648;22;20401;-65
2023/01/10 03:50:16;;;;;;;;;;;;;;;;;;5047725;28;19925;-64
2023/01/10 03:52:42;;;;;;;;;;;;;;;;;;5042671;28;19921;-65
2023/01/10 03:55:08;;;;;;;;;;;;;;;;;;5043457;28;19924;-65
2023/01/10 03:57:34;;;;;;;;;;;;;;;;;;5037175;28;19956;-64
2023/01/10 03:59:59;;;;;;;;;;;;;;;;;;5036302;28;20011;-65
2023/01/10 04:02:25;;;;;;;;;;;;;;;;;;5054687;28;19927;-65
2023/01/10 04:04:51;;;;;;;;;;;;;;;;;;5053022;28;20011;-65
2023/01/10 04:07:17;;;;;;;;;;;;;;;;;;5053241;28;20461;-65
2023/01/10 04:09:43;;;;;;;;;;;;;;;;;;5046956;28;19920;-65
2023/01/10 04:12:09;;;;;;;;;;;;;;;;;;5055129;28;19921;-65
2023/01/10 04:14:35;;;;;;;;;;;;;;;;;;5051663;28;20374;-68
2023/01/10 04:17:01;;;;;;;;;;;;;;;;;;5046309;28;20354;-65
2023/01/10 04:19:27;;;;;;;;;;;;;;;;;;5045947;28;19921;-65
2023/01/10 04:21:53;;;;;;;;;;;;;;;;;;5049620;28;19921;-65
2023/01/10 04:24:19;;;;;;;;;;;;;;;;;;5049125;28;19925;-65
2023/01/10 04:26:45;;;;;;;;;;;;;;;;;;5048010;28;19951;-65
2023/01/10 04:29:10;;;;;;;;;;;;;;;;;;5054375;28;19920;-65
2023/01/10 04:31:38;;;;;;;;;;;;;;;;;;5044741;28;20063;-65
2023/01/10 04:34:04;;;;;;;;;;;;;;;;;;5036098;28;19928;-65
2023/01/10 04:36:30;;;;;;;;;;;;;;;;;;5054472;28;19924;-65
2023/01/10 04:38:56;;;;;;;;;;;;;;;;;;5038321;28;19924;-64
2023/01/10 04:41:22;;;;;;;;;;;;;;;;;;5048175;28;19929;-64
2023/01/10 04:43:48;;;;;;;;;;;;;;;;;;5029731;28;19971;-65
2023/01/10 04:46:14;;;;;;;;;;;;;;;;;;5046847;28;19957;-64
2023/01/10 04:48:40;;;;;;;;;;;;;;;;;;5047092;28;19971;-64
2023/01/10 04:51:06;;;;;;;;;;;;;;;;;;5053150;28;19929;-64
2023/01/10 04:53:32;;;;;;;;;;;;;;;;;;5042105;28;19945;-65
2023/01/10 04:55:58;;;;;;;;;;;;;;;;;;5017261;28;19960;-65
2023/01/10 04:58:23;;;;;;;;;;;;;;;;;;5024746;28;20623;-65
2023/01/10 05:00:51;;;;;;;;;;;;;;;;;;5030678;28;19920;-65
2023/01/10 05:03:19;;;;;;;;;;;;;;;;;;5047331;28;19928;-65
2023/01/10 05:05:44;;;;;;;;;;;;;;;;;;5052842;28;20677;-65
2023/01/10 05:08:10;;;;;;;;;;;;;;;;;;5052537;28;19940;-65
2023/01/10 05:10:36;;;;;;;;;;;;;;;;;;5041690;28;19921;-65
2023/01/10 05:13:02;;;;;;;;;;;;;;;;;;5048402;28;20410;-65
2023/01/10 05:15:28;;;;;;;;;;;;;;;;;;5043150;28;19925;-65
2023/01/10 05:17:55;;;;;;;;;;;;;;;;;;5049286;28;20348;-65
2023/01/10 05:20:20;;;;;;;;;;;;;;;;;;5035481;28;19921;-65
2023/01/10 05:22:48;;;;;;;;;;;;;;;;;;5040339;28;19920;-65
2023/01/10 05:25:14;;;;;;;;;;;;;;;;;;5036364;28;19987;-65
2023/01/10 05:27:39;;;;;;;;;;;;;;;;;;5041865;28;19921;-65
2023/01/10 05:30:05;;;;;;;;;;;;;;;;;;5049802;28;19928;-65
2023/01/10 05:32:31;;;;;;;;;;;;;;;;;;5044291;28;20004;-65
2023/01/10 05:34:57;;;;;;;;;;;;;;;;;;5052499;28;19989;-65
2023/01/10 05:37:23;;;;;;;;;;;;;;;;;;5032773;28;19946;-65
2023/01/10 05:39:49;;;;;;;;;;;;;;;;;;5034452;28;19928;-65
2023/01/10 05:42:15;;;;;;;;;;;;;;;;;;5043149;28;20063;-65
2023/01/10 05:44:41;;;;;;;;;;;;;;;;;;5009599;28;19987;-65
2023/01/10 05:47:07;;;;;;;;;;;;;;;;;;5046192;28;19921;-65
2023/01/10 05:49:32;;;;;;;;;;;;;;;;;;5041966;28;19935;-65
2023/01/10 05:51:58;;;;;;;;;;;;;;;;;;5039137;28;20309;-65
2023/01/10 05:54:24;;;;;;;;;;;;;;;;;;5048475;28;19928;-65
2023/01/10 05:56:50;;;;;;;;;;;;;;;;;;5033783;28;19925;-65
2023/01/10 05:59:16;;;;;;;;;;;;;;;;;;5032908;28;20435;-65
2023/01/10 06:01:42;;;;;;;;;;;;;;;;;;5041545;28;19924;-65
2023/01/10 06:04:08;;;;;;;;;;;;;;;;;;5043773;28;19921;-65
2023/01/10 06:06:34;;;;;;;;;;;;;;;;;;5054093;28;19928;-65
2023/01/10 06:08:59;;;;;;;;;;;;;;;;;;5034867;28;19920;-65
2023/01/10 06:11:28;;;;;;;;;;;;;;;;;;5020503;28;20004;-65
2023/01/10 06:13:54;;;;;;;;;;;;;;;;;;5052372;28;20320;-65
2023/01/10 06:16:20;;;;;;;;;;;;;;;;;;5032545;28;19925;-65
2023/01/10 06:18:46;;;;;;;;;;;;;;;;;;5045761;28;19944;-65
2023/01/10 06:21:12;;;;;;;;;;;;;;;;;;5049562;28;20363;-65
2023/01/10 06:23:38;;;;;;;;;;;;;;;;;;5048054;28;19921;-65
2023/01/10 06:26:04;;;;;;;;;;;;;;;;;;5051655;28;19944;-66
2023/01/10 06:28:30;;;;;;;;;;;;;;;;;;5035831;28;19984;-65
2023/01/10 06:30:56;;;;;;;;;;;;;;;;;;5053412;28;19958;-65
2023/01/10 06:33:22;;;;;;;;;;;;;;;;;;5045860;28;19925;-65
2023/01/10 06:35:47;;;;;;;;;;;;;;;;;;5052292;28;19932;-65
2023/01/10 06:38:13;;;;;;;;;;;;;;;;;;5052065;28;19971;-65
2023/01/10 06:40:39;;;;;;;;;;;;;;;;;;5051278;28;19925;-65
2023/01/10 06:43:05;;;;;;;;;;;;;;;;;;5051741;28;19924;-65
2023/01/10 06:45:31;;;;;;;;;;;;;;;;;;5029620;28;20424;-65
2023/01/10 06:47:57;;;;;;;;;;;;;;;;;;5052367;28;19921;-65
2023/01/10 06:50:23;;;;;;;;;;;;;;;;;;5047808;28;19990;-65
2023/01/10 06:52:49;;;;;;;;;;;;;;;;;;5033658;28;20051;-65
2023/01/10 06:55:15;;;;;;;;;;;;;;;;;;5046740;28;20003;-65
2023/01/10 06:57:40;;;;;;;;;;;;;;;;;;5040520;28;19932;-65
2023/01/10 07:00:06;;;;;;;;;;;;;;;;;;5012733;28;20370;-65
2023/01/10 07:02:32;;;;;;;;;;;;;;;;;;5034207;28;19975;-65
2023/01/10 07:04:58;;;;;;;;;;;;;;;;;;5014260;28;19928;-66
2023/01/10 07:07:24;;;;;;;;;;;;;;;;;;5038342;28;19924;-65
2023/01/10 07:09:50;;;;;;;;;;;;;;;;;;5051609;28;20019;-65
2023/01/10 07:12:16;;;;;;;;;;;;;;;;;;5050216;28;19924;-65
2023/01/10 07:14:42;;;;;;;;;;;;;;;;;;5043354;28;19927;-65
2023/01/10 07:17:08;;;;;;;;;;;;;;;;;;5042518;28;19964;-65
2023/01/10 07:19:34;;;;;;;;;;;;;;;;;;5046660;28;19964;-65
2023/01/10 07:22:00;;;;;;;;;;;;;;;;;;5051924;28;20398;-65
2023/01/10 07:24:26;;;;;;;;;;;;;;;;;;5045623;28;19973;-65
2023/01/10 07:26:52;;;;;;;;;;;;;;;;;;5048694;28;19929;-65
2023/01/10 07:29:18;;;;;;;;;;;;;;;;;;5046996;28;19983;-65
2023/01/10 07:31:44;;;;;;;;;;;;;;;;;;5035931;28;19920;-64
2023/01/10 07:34:10;;;;;;;;;;;;;;;;;;5045398;28;20365;-65
2023/01/10 07:36:37;;;;;;;;;;;;;;;;;;5045221;28;19936;-65
2023/01/10 07:39:03;;;;;;;;;;;;;;;;;;5044887;28;19960;-65
2023/01/10 07:41:29;;;;;;;;;;;;;;;;;;5044083;28;20520;-65
2023/01/10 07:43:55;;;;;;;;;;;;;;;;;;5050097;28;20004;-65
2023/01/10 07:46:20;;;;;;;;;;;;;;;;;;5041435;28;19922;-65
2023/01/10 07:48:47;;;;;;;;;;;;;;;;;;5032061;28;19925;-65
2023/01/10 07:51:13;;;;;;;;;;;;;;;;;;5045739;28;19924;-65
2023/01/10 07:53:39;;;;;;;;;;;;;;;;;;5027634;28;20534;-66
2023/01/10 07:56:05;;;;;;;;;;;;;;;;;;5028001;28;19932;-65
2023/01/10 07:58:32;;;;;;;;;;;;;;;;;;5045468;28;19935;-65
2023/01/10 08:00:58;;;;;;;;;;;;;;;;;;5023162;28;19921;-66
2023/01/10 08:03:23;;;;;;;;;;;;;;;;;;5032585;28;19921;-65
2023/01/10 08:05:50;;;;;;;;;;;;;;;;;;5039396;28;20059;-65
2023/01/10 08:08:16;;;;;;;;;;;;;;;;;;5033483;28;20651;-63
2023/01/10 08:10:42;;;;;;;;;;;;;;;;;;5049472;28;19921;-64
2023/01/10 08:13:08;;;;;;;;;;;;;;;;;;5052236;28;19928;-64
2023/01/10 08:15:33;;;;;;;;;;;;;;;;;;5038431;28;19991;-65
2023/01/10 08:18:00;;;;;;;;;;;;;;;;;;5039682;28;19927;-64
2023/01/10 08:20:26;;;;;;;;;;;;;;;;;;5043953;28;20065;-64
2023/01/10 08:22:52;;;;;;;;;;;;;;;;;;5047121;28;19929;-64
2023/01/10 08:25:17;;;;;;;;;;;;;;;;;;5031494;28;19932;-64
2023/01/10 08:27:43;;;;;;;;;;;;;;;;;;5037509;28;20382;-64
2023/01/10 08:30:09;;;;;;;;;;;;;;;;;;5034985;28;20016;-64
2023/01/10 08:32:35;;;;;;;;;;;;;;;;;;5044842;28;20013;-64
2023/01/10 08:35:01;;;;;;;;;;;;;;;;;;5050215;28;20278;-63
2023/01/10 08:37:27;;;;;;;;;;;;;;;;;;5048469;28;19931;-63
2023/01/10 08:39:53;;;;;;;;;;;;;;;;;;5025233;28;20016;-64
2023/01/10 08:42:19;;;;;;;;;;;;;;;;;;5050590;28;20000;-64
2023/01/10 08:44:45;;;;;;;;;;;;;;;;;;5049600;28;20401;-64
2023/01/10 08:47:11;;;;;;;;;;;;;;;;;;5019208;28;19975;-64
2023/01/10 08:49:37;;;;;;;;;;;;;;;;;;5040020;28;20387;-64
2023/01/10 08:52:03;;;;;;;;;;;;;;;;;;5042123;28;19975;-64
2023/01/10 08:54:29;;;;;;;;;;;;;;;;;;5030519;28;20000;-64
2023/01/10 08:56:55;;;;;;;;;;;;;;;;;;5045673;28;19929;-64
2023/01/10 08:59:21;;;;;;;;;;;;;;;;;;5045132;28;21601;-64
2023/01/10 09:01:47;;;;;;;;;;;;;;;;;;5046134;28;19966;-65
2023/01/10 09:04:12;;;;;;;;;;;;;;;;;;5044329;28;19921;-65
2023/01/10 09:06:38;;;;;;;;;;;;;;;;;;5047881;28;20286;-65
2023/01/10 09:09:04;;;;;;;;;;;;;;;;;;5047051;28;19921;-65
2023/01/10 09:11:30;;;;;;;;;;;;;;;;;;5041101;28;19972;-65
2023/01/10 09:13:56;;;;;;;;;;;;;;;;;;5038646;28;20002;-65
2023/01/10 09:16:22;;;;;;;;;;;;;;;;;;5023403;28;20310;-65
2023/01/10 09:18:48;;;;;;;;;;;;;;;;;;5037995;28;20041;-64
2023/01/10 09:21:14;;;;;;;;;;;;;;;;;;5052012;28;20362;-65
2023/01/10 09:23:42;;;;;;;;;;;;;;;;;;5046965;28;19967;-64
2023/01/10 09:26:08;;;;;;;;;;;;;;;;;;5026633;28;20541;-64
2023/01/10 09:28:34;;;;;;;;;;;;;;;;;;5042006;28;19921;-65
2023/01/10 09:31:02;;;;;;;;;;;;;;;;;;5047300;28;19967;-64
2023/01/10 09:33:28;;;;;;;;;;;;;;;;;;5044243;28;19921;-65
2023/01/10 09:35:54;;;;;;;;;;;;;;;;;;5037186;28;19951;-65
2023/01/10 09:38:21;;;;;;;;;;;;;;;;;;5048780;28;19932;-65
2023/01/10 09:40:47;;;;;;;;;;;;;;;;;;5048956;28;19921;-65
2023/01/10 09:43:12;;;;;;;;;;;;;;;;;;5051737;28;20502;-65
2023/01/10 09:45:38;;;;;;;;;;;;;;;;;;5042069;28;19966;-64
2023/01/10 09:48:04;;;;;;;;;;;;;;;;;;5047623;28;19925;-64
2023/01/10 09:50:30;;;;;;;;;;;;;;;;;;5050815;28;20453;-64
2023/01/10 09:52:56;;;;;;;;;;;;;;;;;;5034494;28;19925;-65
2023/01/10 09:55:22;;;;;;;;;;;;;;;;;;5033980;28;19929;-64
2023/01/10 09:57:48;;;;;;;;;;;;;;;;;;5029551;28;19933;-64
2023/01/10 10:00:14;;;;;;;;;;;;;;;;;;5045062;28;19927;-64
2023/01/10 10:02:40;;;;;;;;;;;;;;;;;;5062742;28;19929;-65
2023/01/10 10:05:06;;;;;;;;;;;;;;;;;;5059020;28;19927;-65
2023/01/10 10:07:32;;;;;;;;;;;;;;;;;;5056940;28;19925;-65
2023/01/10 10:09:57;;;;;;;;;;;;;;;;;;5003064;28;19963;-65
2023/01/10 10:12:23;;;;;;;;;;;;;;;;;;5041846;28;20004;-66
2023/01/10 10:14:49;;;;;;;;;;;;;;;;;;5041286;28;19928;-63
2023/01/10 10:17:15;;;;;;;;;;;;;;;;;;5040075;28;19936;-66
2023/01/10 10:19:41;;;;;;;;;;;;;;;;;;5000335;28;19959;-63
2023/01/10 10:22:07;;;;;;;;;;;;;;;;;;5050548;28;19929;-63
2023/01/10 10:24:33;;;;;;;;;;;;;;;;;;5041852;28;19928;-66
2023/01/10 10:26:59;;;;;;;;;;;;;;;;;;5050564;28;20031;-63
2023/01/10 10:29:25;;;;;;;;;;;;;;;;;;5050553;28;19920;-66
2023/01/10 10:31:51;;;;;;;;;;;;;;;;;;5051692;22;20585;-66
2023/01/10 10:34:17;;;;;;;;;;;;;;;;;;5043294;28;19925;-66
2023/01/10 10:36:43;;;;;;;;;;;;;;;;;;5057054;28;19932;-64
2023/01/10 10:39:08;;;;;;;;;;;;;;;;;;5059273;28;19920;-64
2023/01/10 10:41:34;;;;;;;;;;;;;;;;;;5062038;28;19935;-64
2023/01/10 10:44:03;;;;;;;;;;;;;;;;;;5049273;28;19920;-65
2023/01/10 10:46:29;;;;;;;;;;;;;;;;;;5050952;28;20011;-65
2023/01/10 10:48:55;;;;;;;;;;;;;;;;;;5066985;28;20010;-65
2023/01/10 10:51:21;;;;;;;;;;;;;;;;;;5052448;28;20659;-65
2023/01/10 10:53:47;;;;;;;;;;;;;;;;;;5071810;28;19925;-65
2023/01/10 10:56:14;;;;;;;;;;;;;;;;;;5068641;28;21318;-65
2023/01/10 10:58:40;;;;;;;;;;;;;;;;;;5067189;28;19920;-65
2023/01/10 11:01:06;;;;;;;;;;;;;;;;;;5068040;28;20564;-65
2023/01/10 11:03:32;;;;;;;;;;;;;;;;;;5070168;28;20737;-65
2023/01/10 11:05:59;;;;;;;;;;;;;;;;;;5065401;28;19924;-65
2023/01/10 11:08:25;;;;;;;;;;;;;;;;;;5059774;28;20251;-65
2023/01/10 11:10:50;;;;;;;;;;;;;;;;;;5065603;28;19926;-65
2023/01/10 11:13:16;;;;;;;;;;;;;;;;;;5066646;28;19924;-65
2023/01/10 11:15:42;;;;;;;;;;;;;;;;;;5068082;28;20443;-65
2023/01/10 11:18:08;;;;;;;;;;;;;;;;;;5067186;28;20413;-65
2023/01/10 11:20:34;;;;;;;;;;;;;;;;;;5047182;28;20347;-65
2023/01/10 11:23:00;;;;;;;;;;;;;;;;;;5070166;28;19924;-66
2023/01/10 11:25:26;;;;;;;;;;;;;;;;;;5068199;28;19921;-65
2023/01/10 11:27:52;;;;;;;;;;;;;;;;;;5052457;28;19995;-65
2023/01/10 11:30:18;;;;;;;;;;;;;;;;;;5065045;28;19924;-65
2023/01/10 11:32:44;;;;;;;;;;;;;;;;;;5067841;28;19928;-65
2023/01/10 11:35:10;;;;;;;;;;;;;;;;;;5071654;28;20019;-65
2023/01/10 11:37:35;;;;;;;;;;;;;;;;;;5067473;28;19989;-65
2023/01/10 11:40:01;;;;;;;;;;;;;;;;;;5045678;28;20015;-65
2023/01/10 11:42:30;;;;;;;;;;;;;;;;;;5066635;28;20031;-66
2023/01/10 11:44:56;;;;;;;;;;;;;;;;;;5067719;28;19986;-65
2023/01/10 11:47:22;;;;;;;;;;;;;;;;;;5036809;28;19949;-65
2023/01/10 11:49:48;;;;;;;;;;;;;;;;;;5055936;28;19927;-65
2023/01/10 11:52:14;;;;;;;;;;;;;;;;;;5055299;28;20027;-66
2023/01/10 11:54:39;;;;;;;;;;;;;;;;;;5074383;28;19974;-65
2023/01/10 11:57:05;;;;;;;;;;;;;;;;;;5056589;28;19921;-65
2023/01/10 11:59:31;;;;;;;;;;;;;;;;;;5073973;28;20289;-65
2023/01/10 12:01:57;;;;;;;;;;;;;;;;;;5066645;28;19993;-65
2023/01/10 12:04:23;;;;;;;;;;;;;;;;;;5066586;28;20316;-65
2023/01/10 12:06:49;;;;;;;;;;;;;;;;;;5067514;28;19920;-65
2023/01/10 12:09:15;;;;;;;;;;;;;;;;;;5074789;28;19920;-65
2023/01/10 12:11:41;;;;;;;;;;;;;;;;;;5074836;28;19959;-65
2023/01/10 12:14:07;;;;;;;;;;;;;;;;;;5070988;28;20384;-65
2023/01/10 12:16:33;;;;;;;;;;;;;;;;;;5053271;28;19924;-65
2023/01/10 12:18:59;;;;;;;;;;;;;;;;;;5074852;28;20378;-65
2023/01/10 12:21:25;;;;;;;;;;;;;;;;;;5047297;28;19931;-65
2023/01/10 12:23:51;;;;;;;;;;;;;;;;;;5073871;28;19924;-65
2023/01/10 12:26:17;;;;;;;;;;;;;;;;;;5070379;28;19974;-65
2023/01/10 12:28:43;;;;;;;;;;;;;;;;;;5072701;28;20600;-65
2023/01/10 12:31:09;;;;;;;;;;;;;;;;;;5063733;28;20406;-65
2023/01/10 12:33:35;;;;;;;;;;;;;;;;;;5060413;28;19939;-65
2023/01/10 12:36:01;;;;;;;;;;;;;;;;;;5058185;28;19928;-65
2023/01/10 12:44:09;;;;;;;;;;;;;;;;;;5072520;28;19928;-64
2023/01/10 12:44:10;;;;;;;;;;;;;;;;;;5048662;28;20626;-64
2023/01/10 12:46:35;;;;;;;;;;;;;;;;;;5073476;28;19927;-65
2023/01/10 12:49:01;;;;;;;;;;;;;;;;;;5051205;28;19921;-65
2023/01/10 12:51:27;;;;;;;;;;;;;;;;;;5073813;28;19977;-65
2023/01/10 12:53:53;;;;;;;;;;;;;;;;;;5068666;28;19935;-65
2023/01/10 12:56:19;;;;;;;;;;;;;;;;;;5070972;28;19929;-65
2023/01/10 12:58:45;;;;;;;;;;;;;;;;;;5065025;28;19933;-65
2023/01/10 13:01:11;;;;;;;;;;;;;;;;;;5066196;28;20293;-65
2023/01/10 13:03:37;;;;;;;;;;;;;;;;;;5071936;28;19931;-65
2023/01/10 13:06:03;;;;;;;;;;;;;;;;;;5073553;28;19936;-65
2023/01/10 13:08:29;;;;;;;;;;;;;;;;;;5070415;28;19928;-65
2023/01/10 13:10:55;;;;;;;;;;;;;;;;;;5072659;28;20427;-65
2023/01/10 13:13:21;;;;;;;;;;;;;;;;;;5067949;28;20334;-65
2023/01/10 13:15:47;;;;;;;;;;;;;;;;;;5070242;28;19969;-64
2023/01/10 13:18:14;;;;;;;;;;;;;;;;;;5073985;28;19929;-65
2023/01/10 13:20:40;;;;;;;;;;;;;;;;;;5071497;28;19931;-64
2023/01/10 13:23:06;;;;;;;;;;;;;;;;;;5072584;28;19924;-64
2023/01/10 13:25:33;;;;;;;;;;;;;;;;;;5053335;28;20020;-64
2023/01/10 13:27:59;;;;;;;;;;;;;;;;;;5070958;28;19924;-64
2023/01/10 13:30:25;;;;;;;;;;;;;;;;;;5070428;28;20003;-64
2023/01/10 13:32:51;;;;;;;;;;;;;;;;;;5069837;28;20020;-64
2023/01/10 13:35:17;;;;;;;;;;;;;;;;;;5072459;28;19931;-64
2023/01/10 13:37:43;;;;;;;;;;;;;;;;;;5073199;28;20003;-64
2023/01/10 13:40:09;;;;;;;;;;;;;;;;;;5069477;28;19943;-64
2023/01/10 13:45:20;;;;;;;;;;;;;;;;;;5070400;28;19933;-64
2023/01/10 13:47:47;;;;;;;;;;;;;;;;;;5073208;28;20321;-64
2023/01/10 13:50:13;;;;;;;;;;;;;;;;;;5067862;28;20007;-64
2023/01/10 13:52:38;;;;;;;;;;;;;;;;;;5069926;28;20456;-64
2023/01/10 13:55:05;;;;;;;;;;;;;;;;;;5060384;28;19925;-64
2023/01/10 13:57:31;;;;;;;;;;;;;;;;;;5060774;28;19935;-64
2023/01/10 14:02:41;;;;;;;;;;;;;;;;;;5072114;28;19999;-64
2023/01/10 14:05:07;;;;;;;;;;;;;;;;;;5066807;28;20016;-64
2023/01/10 14:07:34;;;;;;;;;;;;;;;;;;5067749;28;20036;-64
2023/01/10 14:10:00;;;;;;;;;;;;;;;;;;5073033;28;19920;-64
2023/01/10 14:12:26;;;;;;;;;;;;;;;;;;5050196;28;19974;-64
2023/01/10 14:14:52;;;;;;;;;;;;;;;;;;5069268;28;19996;-64
2023/01/10 14:17:17;;;;;;;;;;;;;;;;;;5070320;28;20018;-64
2023/01/10 14:19:43;;;;;;;;;;;;;;;;;;5070877;28;20369;-64
2023/01/10 14:22:09;;;;;;;;;;;;;;;;;;5036594;28;19924;-64
2023/01/10 14:24:35;;;;;;;;;;;;;;;;;;5079779;28;19971;-64
2023/01/10 14:27:01;;;;;;;;;;;;;;;;;;5069019;28;20240;-64
2023/01/10 14:29:29;;;;;;;;;;;;;;;;;;5057049;28;19920;-64
2023/01/10 14:31:55;;;;;;;;;;;;;;;;;;5060966;28;19932;-64
2023/01/10 14:34:21;;;;;;;;;;;;;;;;;;5066262;28;20385;-64
2023/01/10 14:36:47;;;;;;;;;;;;;;;;;;5062569;28;20067;-64
2023/01/10 14:39:13;;;;;;;;;;;;;;;;;;5050909;28;19928;-64
2023/01/10 14:41:38;;;;;;;;;;;;;;;;;;5068638;28;19928;-64
2023/01/10 14:44:04;;;;;;;;;;;;;;;;;;5066300;28;19974;-64
2023/01/10 14:46:30;;;;;;;;;;;;;;;;;;5048106;28;19943;-64
2023/01/10 14:48:59;;;;;;;;;;;;;;;;;;5045292;28;19924;-64
2023/01/10 14:51:25;;;;;;;;;;;;;;;;;;5063235;28;19970;-64
2023/01/10 14:53:51;;;;;;;;;;;;;;;;;;5064521;28;19971;-64
2023/01/10 14:56:17;;;;;;;;;;;;;;;;;;5058367;28;19956;-64
2023/01/10 14:58:43;;;;;;;;;;;;;;;;;;5057429;28;20346;-63
2023/01/10 15:01:09;;;;;;;;;;;;;;;;;;5063717;28;19921;-64
2023/01/10 15:03:37;;;;;;;;;;;;;;;;;;5069887;28;20246;-64
2023/01/10 15:06:03;;;;;;;;;;;;;;;;;;5069123;28;19924;-64
2023/01/10 15:08:32;;;;;;;;;;;;;;;;;;5044619;28;19939;-64
2023/01/10 15:10:57;;;;;;;;;;;;;;;;;;5068839;28;19924;-64
2023/01/10 15:13:23;;;;;;;;;;;;;;;;;;5071333;28;20247;-64
2023/01/10 15:15:50;;;;;;;;;;;;;;;;;;5067419;28;19924;-64
2023/01/10 15:18:16;;;;;;;;;;;;;;;;;;5065376;28;19920;-64
2023/01/10 15:20:41;;;;;;;;;;;;;;;;;;5070778;28;20366;-64
2023/01/10 15:23:07;;;;;;;;;;;;;;;;;;5069938;28;20014;-64
2023/01/10 15:25:36;;;;;;;;;;;;;;;;;;5072071;28;19967;-64
2023/01/10 15:28:02;;;;;;;;;;;;;;;;;;5071468;28;19932;-64
2023/01/10 15:30:28;;;;;;;;;;;;;;;;;;5071942;28;19924;-64
2023/01/10 15:32:54;;;;;;;;;;;;;;;;;;5053722;28;20337;-64
2023/01/10 15:35:20;;;;;;;;;;;;;;;;;;5073857;28;19924;-64
2023/01/10 15:37:46;;;;;;;;;;;;;;;;;;5069804;28;20019;-64
2023/01/10 15:40:12;;;;;;;;;;;;;;;;;;5071070;28;19924;-64
2023/01/10 15:42:37;;;;;;;;;;;;;;;;;;5072718;28;19927;-64
2023/01/10 15:45:03;;;;;;;;;;;;;;;;;;5072681;28;20342;-64
2023/01/10 15:47:29;;;;;;;;;;;;;;;;;;5057240;28;19963;-64
2023/01/10 15:49:57;;;;;;;;;;;;;;;;;;5075425;28;20280;-64
2023/01/10 15:52:22;;;;;;;;;;;;;;;;;;5068755;28;19932;-63
2023/01/10 15:54:48;;;;;;;;;;;;;;;;;;5059584;28;19928;-64
2023/01/10 15:57:14;;;;;;;;;;;;;;;;;;5062641;28;19963;-64
2023/01/10 15:59:40;;;;;;;;;;;;;;;;;;5063538;28;19924;-65
2023/01/10 16:02:06;;;;;;;;;;;;;;;;;;5068965;28;19928;-65
2023/01/10 16:04:32;;;;;;;;;;;;;;;;;;5074054;28;19924;-64
2023/01/10 16:06:58;;;;;;;;;;;;;;;;;;5073482;28;20546;-65
2023/01/10 16:09:24;;;;;;;;;;;;;;;;;;5069171;28;19924;-65
2023/01/10 16:14:35;;;;;;;;;;;;;;;;;;5070395;28;20050;-65
2023/01/10 16:17:00;;;;;;;;;;;;;;;;;;5043017;28;20080;-66
2023/01/10 16:19:27;;;;;;;;;;;;;;;;;;5062531;28;20236;-66
2023/01/10 16:21:56;;;;;;;;;;;;;;;;;;5071420;28;20389;-66
2023/01/10 16:24:22;;;;;;;;;;;;;;;;;;5074839;28;19930;-66
2023/01/10 16:26:48;;;;;;;;;;;;;;;;;;5060338;28;19920;-65
2023/01/10 16:29:14;;;;;;;;;;;;;;;;;;5054730;28;19931;-66
2023/01/10 16:31:40;;;;;;;;;;;;;;;;;;5075374;22;20385;-67
2023/01/10 16:34:06;;;;;;;;;;;;;;;;;;5057374;28;19929;-67
2023/01/10 16:36:32;;;;;;;;;;;;;;;;;;5063026;28;20008;-67
2023/01/10 16:38:57;;;;;;;;;;;;;;;;;;5070362;28;19931;-67
2023/01/10 16:44:08;;;;;;;;;;;;;;;;;;5072281;28;19920;-67
2023/01/10 16:46:34;;;;;;;;;;;;;;;;;;5045770;28;19934;-67
2023/01/10 16:49:00;;;;;;;;;;;;;;;;;;5065786;28;19946;-68
2023/01/10 16:51:31;;;;;;;;;;;;;;;;;;5040301;28;20593;-67
2023/01/10 16:53:57;;;;;;;;;;;;;;;;;;5073201;28;19925;-67
2023/01/10 16:56:23;;;;;;;;;;;;;;;;;;5074326;28;20882;-68
2023/01/10 16:58:49;;;;;;;;;;;;;;;;;;5073744;28;19920;-67
2023/01/10 17:01:15;;;;;;;;;;;;;;;;;;5067352;28;19971;-67
2023/01/10 17:03:41;;;;;;;;;;;;;;;;;;5071540;28;19920;-67
2023/01/10 17:06:07;;;;;;;;;;;;;;;;;;5037253;28;19928;-67
2023/01/10 17:08:33;;;;;;;;;;;;;;;;;;5073304;28;19924;-67
2023/01/10 17:10:59;;;;;;;;;;;;;;;;;;5038204;28;19920;-67
2023/01/10 17:13:25;;;;;;;;;;;;;;;;;;5072608;28;19927;-67
2023/01/10 17:15:50;;;;;;;;;;;;;;;;;;5029393;28;19925;-67